Time;durP1;ratioP1;P1;durP2;ratioP2;P2;SDS_P1;SDS_P2;PMS_P1;PMS_P2;Temp;Humidity;BMP_temperature;BMP_pressure;BME280_temperature;BME280_humidity;BME280_pressure;Samples;Min_cycle;Max_cycle;Signal;HPM_P1;HPM_P2
2021/05/05 00:01:04;;;;;;;55.60;7.80;;;7.20;99.90;;;;;;5012036;28;20022;-86
2021/05/05 00:03:29;;;;;;;37.70;7.15;;;7.20;99.90;;;;;;5011998;28;20478;-83
2021/05/05 00:05:56;;;;;;;46.20;7.68;;;7.30;99.90;;;;;;5010507;28;20033;-85
2021/05/05 00:08:22;;;;;;;46.75;7.40;;;7.20;99.90;;;;;;5011840;28;20076;-85
2021/05/05 00:10:48;;;;;;;42.38;6.72;;;7.20;99.90;;;;;;5012148;28;20088;-84
2021/05/05 00:13:15;;;;;;;59.17;8.60;;;7.30;99.90;;;;;;5011855;28;20041;-85
2021/05/05 00:15:41;;;;;;;46.92;7.10;;;7.30;99.90;;;;;;5011590;28;20545;-84
2021/05/05 00:18:06;;;;;;;47.63;6.95;;;7.30;99.90;;;;;;5010420;28;20037;-83
2021/05/05 00:20:33;;;;;;;49.90;5.57;;;7.30;99.90;;;;;;5011970;28;20022;-83
2021/05/05 00:22:58;;;;;;;32.50;5.03;;;7.20;99.90;;;;;;5011565;28;20022;-83
2021/05/05 00:25:24;;;;;;;36.63;6.13;;;7.20;99.90;;;;;;5011395;28;20518;-84
2021/05/05 00:27:50;;;;;;;50.38;5.88;;;7.20;99.90;;;;;;5011572;28;20080;-84
2021/05/05 00:30:18;;;;;;;36.30;5.78;;;7.20;99.90;;;;;;5011858;28;20033;-84
2021/05/05 00:32:43;;;;;;;38.53;6.90;;;7.20;99.90;;;;;;5011484;28;20025;-84
2021/05/05 00:35:09;;;;;;;39.40;6.28;;;7.20;99.90;;;;;;5011178;28;20041;-84
2021/05/05 00:37:35;;;;;;;35.40;6.43;;;7.20;99.90;;;;;;5011618;28;20068;-84
2021/05/05 00:40:02;;;;;;;37.08;6.25;;;7.10;99.90;;;;;;5011865;28;20034;-83
2021/05/05 00:42:28;;;;;;;25.90;5.70;;;7.10;99.90;;;;;;5011542;28;20025;-86
2021/05/05 00:45:03;;;;;;;34.85;6.03;;;7.20;99.90;;;;;;5011264;28;20025;-85
2021/05/05 00:47:29;;;;;;;38.08;7.55;;;7.10;99.90;;;;;;5010271;28;20030;-84
2021/05/05 00:49:56;;;;;;;25.30;4.55;;;7.10;99.90;;;;;;5010560;28;20497;-82
2021/05/05 00:52:22;;;;;;;39.97;5.93;;;7.10;99.90;;;;;;5010497;28;20033;-84
2021/05/05 00:54:49;;;;;;;23.02;4.05;;;7.10;99.90;;;;;;5011185;28;20108;-84
2021/05/05 00:57:14;;;;;;;22.52;3.75;;;7.00;99.90;;;;;;5011501;28;20049;-84
2021/05/05 00:59:41;;;;;;;22.30;4.72;;;7.00;99.90;;;;;;5011088;28;20022;-83
2021/05/05 01:02:06;;;;;;;18.35;3.22;;;7.00;99.90;;;;;;5011254;28;20482;-85
2021/05/05 01:04:32;;;;;;;25.52;3.83;;;6.90;99.90;;;;;;5011059;28;20034;-86
2021/05/05 01:06:58;;;;;;;20.73;3.50;;;6.90;99.90;;;;;;5011375;28;20037;-83
2021/05/05 01:09:24;;;;;;;32.67;4.85;;;6.90;99.90;;;;;;5011680;28;20038;-85
2021/05/05 01:11:50;;;;;;;30.10;3.78;;;6.90;99.90;;;;;;5010349;28;20084;-85
2021/05/05 01:14:16;;;;;;;19.75;4.38;;;6.90;99.90;;;;;;5009621;28;20026;-83
2021/05/05 01:16:42;;;;;;;32.90;3.75;;;6.80;99.90;;;;;;5011361;28;20034;-84
2021/05/05 01:19:08;;;;;;;21.50;4.00;;;6.80;99.90;;;;;;5010288;28;20441;-83
2021/05/05 01:21:34;;;;;;;20.70;4.07;;;6.70;99.90;;;;;;5014909;28;20026;-84
2021/05/05 01:24:00;;;;;;;37.30;5.35;;;6.70;99.90;;;;;;5014642;28;20038;-85
2021/05/05 01:26:27;;;;;;;28.52;4.38;;;6.70;99.90;;;;;;5015080;28;20032;-84
2021/05/05 01:28:57;;;;;;;36.08;5.78;;;6.80;99.90;;;;;;5015154;28;20498;-84
2021/05/05 01:31:23;;;;;;;28.23;4.50;;;6.80;99.90;;;;;;5013682;28;20030;-85
2021/05/05 01:33:49;;;;;;;40.65;6.38;;;6.70;99.90;;;;;;5014329;28;20018;-84
2021/05/05 01:36:17;;;;;;;46.63;6.00;;;6.70;99.90;;;;;;5014265;28;20048;-85
2021/05/05 01:38:43;;;;;;;33.75;5.70;;;6.70;99.90;;;;;;5014936;28;20141;-82
2021/05/05 01:41:08;;;;;;;24.30;4.88;;;6.70;99.90;;;;;;5013551;28;20033;-85
2021/05/05 01:43:34;;;;;;;38.03;5.15;;;6.70;99.90;;;;;;5014765;28;20041;-87
2021/05/05 01:45:59;;;;;;;42.38;5.53;;;6.70;99.90;;;;;;5014257;28;20036;-85
2021/05/05 01:48:25;;;;;;;31.17;5.00;;;6.60;99.90;;;;;;5013769;28;20033;-84
2021/05/05 01:50:51;;;;;;;36.28;4.72;;;6.70;99.90;;;;;;5014743;28;20501;-84
2021/05/05 01:53:17;;;;;;;26.48;4.65;;;6.70;99.90;;;;;;5014487;28;20045;-84
2021/05/05 01:55:44;;;;;;;34.45;3.63;;;6.70;99.90;;;;;;5014091;28;20026;-84
2021/05/05 01:58:09;;;;;;;34.88;4.40;;;6.60;99.90;;;;;;5012856;28;20442;-85
2021/05/05 02:00:35;;;;;;;18.15;3.10;;;6.60;99.90;;;;;;5014596;28;20077;-85
2021/05/05 02:03:01;;;;;;;26.38;3.58;;;6.50;99.90;;;;;;5014449;28;20057;-84
2021/05/05 02:05:26;;;;;;;29.85;4.25;;;6.50;99.90;;;;;;5013799;28;20037;-85
2021/05/05 02:07:52;;;;;;;34.10;4.43;;;6.50;99.90;;;;;;5012841;28;20090;-85
2021/05/05 02:10:20;;;;;;;37.30;5.32;;;6.50;99.90;;;;;;5013407;28;20466;-83
2021/05/05 02:12:46;;;;;;;39.10;4.90;;;6.40;99.90;;;;;;5014255;28;20033;-85
2021/05/05 02:15:13;;;;;;;22.88;2.65;;;6.40;99.90;;;;;;5013668;28;20482;-84
2021/05/05 02:17:39;;;;;;;32.08;3.72;;;6.40;99.90;;;;;;5013947;28;20037;-84
2021/05/05 02:20:09;;;;;;;42.67;4.13;;;6.30;99.90;;;;;;5013871;28;20022;-82
2021/05/05 02:22:34;;;;;;;30.13;3.60;;;6.30;99.90;;;;;;5014014;28;20030;-84
2021/05/05 02:25:00;;;;;;;25.35;3.40;;;6.40;99.90;;;;;;5013458;28;20064;-84
2021/05/05 02:27:27;;;;;;;24.17;3.25;;;6.30;99.90;;;;;;5013754;28;20167;-85
2021/05/05 02:29:52;;;;;;;49.10;5.28;;;6.30;99.90;;;;;;5013870;28;20663;-85
2021/05/05 02:32:21;;;;;;;40.55;3.72;;;6.30;99.90;;;;;;5013063;28;20101;-84
2021/05/05 02:34:47;;;;;;;27.88;4.05;;;6.30;99.90;;;;;;5013771;28;20057;-84
2021/05/05 02:37:13;;;;;;;20.80;3.55;;;6.40;99.90;;;;;;5013715;28;20061;-84
2021/05/05 02:39:40;;;;;;;27.65;3.55;;;6.40;99.90;;;;;;5014084;28;20385;-85
2021/05/05 02:42:07;;;;;;;28.70;3.95;;;6.30;99.90;;;;;;5012666;28;20022;-85
2021/05/05 02:44:33;;;;;;;34.55;4.57;;;6.30;99.90;;;;;;5013097;28;20064;-86
2021/05/05 02:46:59;;;;;;;15.93;3.10;;;6.30;99.90;;;;;;5013628;28;20423;-87
2021/05/05 02:49:25;;;;;;;29.50;3.83;;;6.30;99.90;;;;;;5012626;28;20108;-84
2021/05/05 02:51:50;;;;;;;16.33;3.05;;;6.30;99.90;;;;;;5012451;28;20129;-85
2021/05/05 02:54:16;;;;;;;22.70;2.65;;;6.30;99.90;;;;;;5012530;28;20037;-83
2021/05/05 02:56:42;;;;;;;23.65;4.22;;;6.30;99.90;;;;;;5012120;28;20080;-84
2021/05/05 02:59:07;;;;;;;22.25;2.97;;;6.30;99.90;;;;;;5013765;28;20084;-84
2021/05/05 03:01:33;;;;;;;26.92;3.03;;;6.30;99.90;;;;;;5013345;28;20491;-85
2021/05/05 03:03:58;;;;;;;26.17;2.80;;;6.30;99.90;;;;;;5013286;28;20425;-85
2021/05/05 03:06:24;;;;;;;38.05;3.00;;;6.30;99.90;;;;;;5011855;28;20026;-85
2021/05/05 03:08:50;;;;;;;28.65;3.03;;;6.30;99.90;;;;;;5013473;28;20644;-85
2021/05/05 03:11:16;;;;;;;17.35;2.72;;;6.20;99.90;;;;;;5013646;28;20049;-85
2021/05/05 03:13:41;;;;;;;53.97;3.63;;;6.20;99.90;;;;;;5012890;28;20359;-85
2021/05/05 03:16:07;;;;;;;18.90;2.63;;;6.20;99.90;;;;;;5012860;28;20033;-83
2021/05/05 03:18:33;;;;;;;33.85;3.33;;;6.20;99.90;;;;;;5012141;28;20046;-85
2021/05/05 03:20:59;;;;;;;34.58;4.22;;;6.20;99.90;;;;;;5013166;28;20072;-84
2021/05/05 03:23:26;;;;;;;30.27;4.80;;;6.20;99.90;;;;;;5013115;28;20029;-85
2021/05/05 03:25:52;;;;;;;21.83;2.88;;;6.30;99.90;;;;;;5012930;28;20029;-84
2021/05/05 03:28:18;;;;;;;22.00;3.10;;;6.20;99.90;;;;;;5013215;28;20095;-85
2021/05/05 03:30:43;;;;;;;21.60;3.58;;;6.30;99.90;;;;;;5013313;28;20026;-84
2021/05/05 03:33:09;;;;;;;35.25;3.40;;;6.20;99.90;;;;;;5011512;28;20041;-84
2021/05/05 03:35:35;;;;;;;37.25;3.85;;;6.20;99.90;;;;;;5012392;28;20029;-84
2021/05/05 03:38:00;;;;;;;42.70;3.60;;;6.30;99.90;;;;;;5019311;28;20445;-85
2021/05/05 03:40:28;;;;;;;31.48;3.22;;;6.20;99.90;;;;;;5013170;28;20139;-84
2021/05/05 03:42:54;;;;;;;27.20;3.47;;;6.20;99.90;;;;;;5012524;28;20022;-85
2021/05/05 03:45:20;;;;;;;28.65;4.20;;;6.20;99.90;;;;;;5011909;28;20014;-86
2021/05/05 03:47:45;;;;;;;24.15;4.40;;;6.30;99.90;;;;;;5011341;28;20064;-85
2021/05/05 03:50:12;;;;;;;41.58;4.40;;;6.30;99.90;;;;;;5012813;28;20478;-83
2021/05/05 03:52:37;;;;;;;33.78;4.90;;;6.30;99.90;;;;;;5011799;28;20034;-85
2021/05/05 03:55:05;;;;;;;28.95;4.63;;;6.30;99.90;;;;;;5012426;28;20028;-85
2021/05/05 03:57:31;;;;;;;34.22;4.82;;;6.30;99.90;;;;;;5011161;28;20037;-85
2021/05/05 03:59:57;;;;;;;42.75;4.97;;;6.30;99.90;;;;;;5028054;28;20026;-85
2021/05/05 04:02:22;;;;;;;49.65;4.03;;;6.30;99.90;;;;;;5000289;28;20441;-84
2021/05/05 04:04:48;;;;;;;31.10;3.35;;;6.30;99.90;;;;;;4991210;28;20049;-86
2021/05/05 04:07:14;;;;;;;26.13;5.22;;;6.30;99.90;;;;;;4996138;28;20080;-86
2021/05/05 04:09:39;;;;;;;32.17;3.53;;;6.30;99.90;;;;;;5012538;28;20022;-86
2021/05/05 04:12:07;;;;;;;25.73;3.88;;;6.30;99.90;;;;;;5011116;28;20411;-84
2021/05/05 04:14:32;;;;;;;27.48;3.17;;;6.40;99.90;;;;;;5011907;28;20029;-85
2021/05/05 04:16:58;;;;;;;31.77;5.03;;;6.40;99.90;;;;;;5010857;28;20026;-84
2021/05/05 04:19:23;;;;;;;37.90;5.03;;;6.40;99.90;;;;;;5012257;28;20030;-85
2021/05/05 04:21:50;;;;;;;45.40;4.40;;;6.40;99.90;;;;;;5012152;28;20494;-85
2021/05/05 04:24:16;;;;;;;29.77;4.22;;;6.50;99.90;;;;;;5011715;28;20033;-84
2021/05/05 04:26:43;;;;;;;32.65;5.40;;;6.50;99.90;;;;;;5011886;28;20103;-85
2021/05/05 04:29:08;;;;;;;32.22;3.45;;;6.50;99.90;;;;;;5010729;28;20033;-86
2021/05/05 04:31:34;;;;;;;27.80;3.58;;;6.50;99.90;;;;;;5010583;28;20088;-85
2021/05/05 04:34:00;;;;;;;25.00;3.58;;;6.50;99.90;;;;;;5010105;28;20053;-85
2021/05/05 04:36:25;;;;;;;21.58;3.78;;;6.50;99.90;;;;;;5012240;28;20021;-86
2021/05/05 04:38:51;;;;;;;21.23;3.50;;;6.50;99.90;;;;;;5010847;28;20026;-85
2021/05/05 04:41:17;;;;;;;28.65;3.85;;;6.50;99.90;;;;;;5011260;28;20033;-85
2021/05/05 04:43:42;;;;;;;45.33;5.25;;;6.50;99.90;;;;;;5010451;28;20076;-85
2021/05/05 04:46:08;;;;;;;35.63;4.22;;;6.40;99.90;;;;;;5010509;28;20018;-86
2021/05/05 04:48:34;;;;;;;21.63;4.80;;;6.50;99.90;;;;;;5010887;28;20025;-85
2021/05/05 04:51:00;;;;;;;39.90;4.60;;;6.60;99.90;;;;;;5012267;28;20038;-87
2021/05/05 04:53:26;;;;;;;46.72;6.18;;;6.60;99.90;;;;;;5010936;28;20026;-84
2021/05/05 04:55:52;;;;;;;39.22;5.15;;;6.60;99.90;;;;;;5013408;28;20025;-87
2021/05/05 04:58:21;;;;;;;61.42;19.50;;;6.70;99.90;;;;;;5014809;28;20030;-85
2021/05/05 05:00:46;;;;;;;66.68;24.35;;;6.70;99.90;;;;;;5016106;28;20030;-87
2021/05/05 05:03:12;;;;;;;53.60;13.35;;;6.80;99.90;;;;;;5014399;28;20500;-84
2021/05/05 05:05:38;;;;;;;38.10;6.72;;;6.80;99.90;;;;;;5015389;28;20033;-84
2021/05/05 05:08:03;;;;;;;33.20;9.57;;;6.80;99.90;;;;;;5021989;28;20501;-85
2021/05/05 05:10:29;;;;;;;44.58;12.15;;;6.80;99.90;;;;;;5015771;28;20394;-85
2021/05/05 05:12:55;;;;;;;47.28;10.82;;;6.80;99.90;;;;;;5014545;28;20057;-86
2021/05/05 05:15:22;;;;;;;52.88;11.32;;;6.80;99.90;;;;;;5013918;28;20022;-85
2021/05/05 05:17:48;;;;;;;40.08;15.77;;;6.80;99.90;;;;;;5015256;28;20033;-86
2021/05/05 05:20:14;;;;;;;36.70;10.07;;;6.90;99.90;;;;;;5014658;28;20026;-87
2021/05/05 05:22:40;;;;;;;59.60;15.57;;;7.00;99.90;;;;;;5014493;28;20096;-86
2021/05/05 05:25:09;;;;;;;33.13;11.75;;;7.00;99.90;;;;;;5015242;28;20470;-85
2021/05/05 05:27:35;;;;;;;40.78;6.32;;;7.00;99.90;;;;;;5015241;28;20552;-85
2021/05/05 05:30:01;;;;;;;34.85;6.75;;;7.00;99.90;;;;;;5014155;28;20025;-86
2021/05/05 05:32:26;;;;;;;43.60;7.57;;;7.00;99.90;;;;;;5013406;28;20084;-85
2021/05/05 05:34:52;;;;;;;29.27;7.28;;;7.00;99.90;;;;;;5014819;28;20064;-86
2021/05/05 05:37:18;;;;;;;38.67;9.93;;;7.10;99.90;;;;;;5013642;28;20482;-86
2021/05/05 05:39:45;;;;;;;33.47;8.02;;;7.00;99.90;;;;;;5015493;28;20106;-86
2021/05/05 05:42:10;;;;;;;37.58;9.93;;;7.00;99.90;;;;;;5015335;28;20036;-86
2021/05/05 05:44:36;;;;;;;29.77;8.07;;;7.00;99.90;;;;;;5013176;28;20502;-84
2021/05/05 05:47:01;;;;;;;36.63;9.95;;;7.00;99.90;;;;;;5014808;28;20477;-84
2021/05/05 05:49:27;;;;;;;45.28;9.95;;;7.00;99.90;;;;;;5013729;28;20045;-84
2021/05/05 05:51:53;;;;;;;31.10;7.05;;;7.00;99.90;;;;;;5015113;28;20037;-84
2021/05/05 05:54:20;;;;;;;27.42;8.40;;;7.10;99.90;;;;;;5013044;28;20033;-85
2021/05/05 05:56:46;;;;;;;30.85;9.20;;;7.10;99.90;;;;;;5013026;28;20014;-85
2021/05/05 05:59:11;;;;;;;21.38;9.13;;;7.10;99.90;;;;;;5015067;28;20030;-84
2021/05/05 06:01:37;;;;;;;20.75;10.40;;;7.10;99.90;;;;;;5008821;28;20114;-86
2021/05/05 06:04:03;;;;;;;22.73;7.95;;;7.10;99.90;;;;;;5014117;28;20486;-86
2021/05/05 06:06:29;;;;;;;29.80;12.95;;;7.10;99.90;;;;;;5012328;28;20026;-86
2021/05/05 06:08:54;;;;;;;25.90;10.75;;;7.10;99.90;;;;;;5012357;28;20137;-85
2021/05/05 06:11:21;;;;;;;23.10;8.23;;;7.10;99.90;;;;;;5013416;28;20530;-85
2021/05/05 06:13:46;;;;;;;14.98;5.10;;;7.20;99.90;;;;;;5013032;28;20032;-87
2021/05/05 06:16:12;;;;;;;9.20;2.35;;;7.00;99.90;;;;;;5013697;28;20030;-87
2021/05/05 06:18:38;;;;;;;17.95;3.67;;;6.90;99.90;;;;;;5013569;28;20029;-87
2021/05/05 06:21:04;;;;;;;19.73;4.03;;;6.90;99.90;;;;;;5013458;28;20018;-84
2021/05/05 06:23:29;;;;;;;22.05;3.28;;;6.90;99.90;;;;;;5013220;28;20121;-85
2021/05/05 06:25:56;;;;;;;31.80;4.47;;;6.90;99.90;;;;;;5013149;28;20355;-85
2021/05/05 06:28:22;;;;;;;20.08;2.92;;;6.90;99.90;;;;;;5012851;28;20420;-86
2021/05/05 06:30:48;;;;;;;33.00;7.00;;;6.90;99.90;;;;;;5013308;28;20029;-86
2021/05/05 06:33:14;;;;;;;25.38;6.20;;;6.80;99.90;;;;;;5013059;28;20390;-84
2021/05/05 06:35:42;;;;;;;12.55;2.05;;;6.60;99.90;;;;;;5013622;28;20497;-85
2021/05/05 06:38:22;;;;;;;19.17;5.60;;;6.50;99.90;;;;;;5012453;28;20119;-84
2021/05/05 06:40:51;;;;;;;26.50;10.82;;;6.40;99.90;;;;;;5014159;28;20018;-84
2021/05/05 06:43:22;;;;;;;44.60;14.85;;;6.50;99.90;;;;;;5028188;28;20034;-84
2021/05/05 06:45:53;;;;;;;46.22;22.13;;;6.60;99.90;;;;;;5013605;28;20018;-85
2021/05/05 06:48:19;;;;;;;40.15;18.75;;;6.50;99.90;;;;;;5013472;28;20662;-84
2021/05/05 06:50:45;;;;;;;35.85;12.23;;;6.60;99.90;;;;;;5014212;28;20033;-84
2021/05/05 06:53:19;;;;;;;37.30;11.57;;;6.70;99.90;;;;;;5012648;28;20026;-87
2021/05/05 06:56:16;;;;;;;34.65;10.75;;;6.80;99.90;;;;;;5012402;28;20104;-85
2021/05/05 06:58:41;;;;;;;37.92;16.80;;;6.90;99.90;;;;;;5012476;28;20586;-86
2021/05/05 07:01:10;;;;;;;53.90;22.98;;;7.00;99.90;;;;;;5013669;28;20101;-87
2021/05/05 07:03:36;;;;;;;28.25;10.20;;;7.00;99.90;;;;;;5012744;28;20029;-84
2021/05/05 07:06:04;;;;;;;25.42;8.07;;;7.00;99.90;;;;;;5013814;28;20098;-87
2021/05/05 07:08:30;;;;;;;22.70;4.25;;;6.90;99.90;;;;;;5011858;28;20084;-86
2021/05/05 07:10:55;;;;;;;32.33;6.72;;;7.00;99.90;;;;;;5013423;28;20030;-84
2021/05/05 07:13:24;;;;;;;43.10;10.85;;;7.00;99.90;;;;;;5012539;28;20038;-87
2021/05/05 07:15:52;;;;;;;21.60;3.83;;;7.10;99.90;;;;;;5012905;28;20026;-86
2021/05/05 07:18:18;;;;;;;26.58;6.47;;;7.10;99.90;;;;;;5011890;28;20029;-85
2021/05/05 07:20:44;;;;;;;26.38;6.85;;;7.30;99.90;;;;;;5011351;28;20442;-84
2021/05/05 07:23:10;;;;;;;34.38;8.75;;;7.50;99.90;;;;;;5013178;28;20064;-84
2021/05/05 07:25:36;;;;;;;46.00;13.45;;;7.60;99.90;;;;;;5011097;28;20050;-84
2021/05/05 07:28:01;;;;;;;18.70;8.10;;;7.90;99.90;;;;;;5012424;28;20517;-83
2021/05/05 07:30:27;;;;;;;16.50;6.28;;;7.90;99.90;;;;;;5013004;28;20080;-86
2021/05/05 07:32:55;;;;;;;14.85;2.13;;;7.90;99.90;;;;;;5009285;28;20032;-84
2021/05/05 07:35:22;;;;;;;35.25;3.05;;;7.80;99.90;;;;;;5002377;28;20029;-84
2021/05/05 07:41:04;;;;;;;13.02;2.30;;;7.80;99.90;;;;;;4998916;28;20100;-83
2021/05/05 07:48:35;;;;;;;15.40;1.75;;;7.70;99.90;;;;;;5003916;28;20397;-85
2021/05/05 07:51:01;;;;;;;24.08;3.72;;;7.60;99.90;;;;;;5013445;28;20033;-83
2021/05/05 07:53:27;;;;;;;14.38;2.10;;;7.60;99.90;;;;;;4991937;28;20510;-87
2021/05/05 07:55:55;;;;;;;17.95;2.75;;;7.50;99.90;;;;;;4993002;28;20045;-89
2021/05/05 07:58:21;;;;;;;20.05;1.95;;;7.50;99.90;;;;;;5007694;28;20030;-86
2021/05/05 08:00:50;;;;;;;17.85;2.45;;;7.30;99.90;;;;;;5011615;28;20049;-87
2021/05/05 08:03:16;;;;;;;14.27;2.50;;;7.30;99.90;;;;;;5011279;28;20096;-85
2021/05/05 08:05:42;;;;;;;17.67;3.03;;;7.10;99.90;;;;;;5010895;28;20022;-84
2021/05/05 08:08:07;;;;;;;13.15;2.03;;;7.00;99.90;;;;;;5005174;28;20038;-82
2021/05/05 08:10:33;;;;;;;16.90;2.30;;;7.00;99.90;;;;;;4998229;28;20034;-81
2021/05/05 08:12:58;;;;;;;16.88;2.00;;;6.90;99.90;;;;;;4988726;28;20646;-82
2021/05/05 08:15:24;;;;;;;11.05;1.73;;;6.80;99.90;;;;;;5002807;28;20037;-85
2021/05/05 08:17:50;;;;;;;9.35;1.67;;;6.80;99.90;;;;;;5015113;28;20116;-86
2021/05/05 08:20:16;;;;;;;8.70;1.17;;;6.90;99.90;;;;;;5012281;28;20025;-88
2021/05/05 08:22:44;;;;;;;10.75;1.60;;;6.90;99.90;;;;;;5011492;28;20501;-85
2021/05/05 08:25:10;;;;;;;7.75;1.23;;;7.20;99.90;;;;;;5010986;28;20034;-85
2021/05/05 08:27:36;;;;;;;8.15;1.17;;;7.30;99.90;;;;;;5011287;28;20486;-86
2021/05/05 08:30:02;;;;;;;7.05;1.27;;;7.50;99.90;;;;;;5012102;28;20541;-85
2021/05/05 08:32:28;;;;;;;9.57;1.55;;;7.50;99.90;;;;;;5011684;28;20034;-88
2021/05/05 08:34:54;;;;;;;5.45;1.40;;;7.40;99.90;;;;;;5020812;28;20482;-87
2021/05/05 08:37:19;;;;;;;9.02;1.65;;;7.30;99.90;;;;;;5011120;28;20030;-87
2021/05/05 08:39:45;;;;;;;9.82;1.45;;;7.30;99.90;;;;;;5011000;28;20117;-86
2021/05/05 08:42:19;;;;;;;20.67;1.90;;;7.40;99.90;;;;;;5011339;28;20026;-88
2021/05/05 08:44:54;;;;;;;9.00;1.70;;;7.40;99.90;;;;;;5005979;28;20026;-87
2021/05/05 08:47:20;;;;;;;10.45;1.35;;;7.50;99.90;;;;;;5004262;28;20064;-88
2021/05/05 08:49:48;;;;;;;15.07;2.03;;;7.50;99.90;;;;;;5011261;28;20018;-87
2021/05/05 08:52:14;;;;;;;7.72;1.33;;;7.40;99.90;;;;;;5010826;28;20022;-87
2021/05/05 08:54:41;;;;;;;5.72;1.48;;;7.40;99.90;;;;;;5009396;28;20021;-84
2021/05/05 08:57:07;;;;;;;21.58;1.95;;;7.10;99.90;;;;;;4991601;28;20022;-86
2021/05/05 08:59:33;;;;;;;12.38;1.45;;;7.20;99.90;;;;;;4997409;28;20072;-83
2021/05/05 09:02:00;;;;;;;17.90;1.98;;;7.30;99.90;;;;;;4998915;28;20030;-84
2021/05/05 09:04:26;;;;;;;24.65;1.92;;;7.40;99.90;;;;;;5008813;28;20033;-84
2021/05/05 09:06:54;;;;;;;11.40;1.63;;;7.40;99.90;;;;;;5011553;28;20097;-82
2021/05/05 09:09:34;;;;;;;11.80;1.83;;;7.40;99.90;;;;;;5010499;28;20029;-87
2021/05/05 09:12:11;;;;;;;20.40;1.95;;;7.40;99.90;;;;;;5011121;28;20025;-86
2021/05/05 09:14:50;;;;;;;19.15;2.22;;;7.30;99.90;;;;;;5027566;28;20530;-87
2021/05/05 09:17:19;;;;;;;15.75;2.22;;;7.20;99.90;;;;;;5027821;28;20069;-86
2021/05/05 09:19:45;;;;;;;12.85;1.85;;;7.00;99.90;;;;;;5012624;28;20026;-87
2021/05/05 09:28:26;;;;;;;16.83;1.67;;;6.70;99.90;;;;;;4994319;28;20046;-87
2021/05/05 09:31:11;;;;;;;13.93;1.90;;;6.70;99.90;;;;;;5006110;28;20030;-85
2021/05/05 09:34:00;;;;;;;17.83;1.92;;;6.60;99.90;;;;;;5008142;28;20145;-86
2021/05/05 09:36:36;;;;;;;12.48;2.15;;;6.30;99.90;;;;;;4998892;28;20040;-84
2021/05/05 09:39:08;;;;;;;16.60;2.25;;;6.40;99.90;;;;;;5019919;28;20041;-86
2021/05/05 09:41:35;;;;;;;16.77;2.00;;;6.60;99.90;;;;;;5014641;28;20026;-87
2021/05/05 09:44:09;;;;;;;16.50;2.33;;;6.60;99.90;;;;;;5013750;28;20022;-88
2021/05/05 09:46:45;;;;;;;13.75;2.50;;;6.60;99.90;;;;;;5015130;28;20033;-89
2021/05/05 09:49:40;;;;;;;7.88;1.95;;;6.80;99.90;;;;;;5014505;28;20153;-88
2021/05/05 09:52:29;;;;;;;20.60;2.80;;;6.80;99.90;;;;;;5020158;28;20083;-84
2021/05/05 09:55:03;;;;;;;18.48;1.90;;;6.60;99.90;;;;;;5013116;28;20033;-86
2021/05/05 09:57:32;;;;;;;;;;;6.50;99.90;;;;;;5015567;28;20080;-85
2021/05/05 10:00:07;;;;;;;14.23;2.45;;;6.50;99.90;;;;;;5014788;28;19909;-85
2021/05/05 10:02:47;;;;;;;19.75;2.95;;;6.50;99.90;;;;;;5013775;28;20034;-84
2021/05/05 10:05:21;;;;;;;21.63;2.47;;;6.40;99.90;;;;;;5013327;28;20149;-84
2021/05/05 10:08:03;;;;;;;11.13;2.15;;;6.30;99.90;;;;;;5013811;28;20526;-84
2021/05/05 10:10:30;;;;;;;24.30;3.92;;;6.30;99.90;;;;;;5011683;28;20454;-86
2021/05/05 10:12:58;;;;;;;32.65;4.85;;;6.30;99.90;;;;;;5013593;28;20036;-85
2021/05/05 10:15:30;;;;;;;18.92;2.95;;;6.30;99.90;;;;;;5012925;28;20022;-85
2021/05/05 10:17:56;;;;;;;19.42;3.70;;;6.20;99.90;;;;;;5014304;28;20026;-84
2021/05/05 10:20:26;;;;;;;19.83;4.40;;;6.30;99.90;;;;;;5014001;28;20028;-80
2021/05/05 10:22:54;;;;;;;22.58;3.85;;;6.20;99.90;;;;;;4994564;28;20479;-84
2021/05/05 10:25:22;;;;;;;12.43;3.88;;;6.10;99.90;;;;;;4993813;28;20502;-83
2021/05/05 10:27:47;;;;;;;13.10;2.30;;;6.20;99.90;;;;;;5007961;28;20048;-86
2021/05/05 10:30:20;;;;;;;9.63;2.13;;;6.30;99.90;;;;;;5013173;28;20486;-84
2021/05/05 10:32:47;;;;;;;26.95;5.28;;;6.20;99.90;;;;;;5014559;28;20561;-82
2021/05/05 10:35:17;;;;;;;26.70;1.83;;;6.10;99.90;;;;;;5002191;28;20041;-84
2021/05/05 10:37:48;;;;;;;17.13;2.38;;;6.10;99.90;;;;;;4999693;28;20034;-85
2021/05/05 10:40:25;;;;;;;10.90;2.20;;;6.10;99.90;;;;;;5014392;28;20034;-85
2021/05/05 10:43:00;;;;;;;13.07;2.83;;;6.20;99.90;;;;;;5001060;28;20042;-88
2021/05/05 10:45:38;;;;;;;14.77;2.22;;;6.20;99.90;;;;;;5016591;28;20046;-87
2021/05/05 10:48:28;;;;;;;14.38;1.63;;;6.10;99.90;;;;;;5017863;28;20116;-85
2021/05/05 10:50:59;;;;;;;16.30;2.55;;;6.20;99.90;;;;;;5000554;28;20426;-86
2021/05/05 10:53:42;;;;;;;23.77;2.50;;;6.20;99.90;;;;;;5003118;28;20077;-87
2021/05/05 10:56:24;;;;;;;20.52;2.65;;;6.10;99.90;;;;;;5006253;28;20076;-86
2021/05/05 10:59:07;;;;;;;23.42;2.85;;;6.10;99.90;;;;;;5000436;28;20037;-85
2021/05/05 11:01:39;;;;;;;22.03;3.83;;;6.10;99.90;;;;;;5016244;28;20025;-86
2021/05/05 11:04:06;;;;;;;24.38;3.72;;;6.00;99.90;;;;;;5008884;28;20412;-84
2021/05/05 11:06:36;;;;;;;20.02;2.67;;;6.00;99.90;;;;;;5014105;28;20029;-83
2021/05/05 11:09:14;;;;;;;20.05;2.55;;;6.10;99.90;;;;;;5007956;28;20033;-85
2021/05/05 11:11:45;;;;;;;16.35;3.08;;;6.20;99.90;;;;;;4998039;28;20072;-86
2021/05/05 11:14:37;;;;;;;28.60;2.95;;;6.10;99.90;;;;;;4990907;28;20490;-84
2021/05/05 11:17:05;;;;;;;11.32;2.78;;;6.20;99.90;;;;;;4975443;28;20140;-84
2021/05/05 11:19:40;;;;;;;17.17;3.05;;;6.30;99.90;;;;;;4998701;28;20105;-85
2021/05/05 11:22:18;;;;;;;12.60;2.75;;;6.40;99.90;;;;;;5007240;28;20029;-86
2021/05/05 11:24:44;;;;;;;16.83;2.03;;;6.40;99.90;;;;;;5001349;28;20062;-84
2021/05/05 11:27:12;;;;;;;88.22;36.80;;;6.40;99.90;;;;;;5003217;28;20022;-86
2021/05/05 11:29:50;;;;;;;33.88;4.70;;;6.30;99.90;;;;;;4996154;28;20018;-83
2021/05/05 11:32:18;;;;;;;33.85;6.15;;;6.20;99.90;;;;;;4999587;28;20022;-85
2021/05/05 11:34:45;;;;;;;29.95;4.55;;;6.20;99.90;;;;;;5006103;28;20018;-84
2021/05/05 11:37:18;;;;;;;41.40;10.00;;;6.10;99.90;;;;;;5006835;28;20104;-83
2021/05/05 11:39:49;;;;;;;31.33;8.65;;;6.10;99.90;;;;;;4999560;28;20030;-84
2021/05/05 11:42:21;;;;;;;32.63;8.18;;;6.10;99.90;;;;;;5021566;28;20026;-84
2021/05/05 11:44:50;;;;;;;32.47;11.45;;;6.00;99.90;;;;;;5006972;28;20386;-83
2021/05/05 11:47:20;;;;;;;39.65;13.05;;;6.00;99.90;;;;;;5006386;28;20393;-83
2021/05/05 11:49:49;;;;;;;35.58;7.95;;;5.90;99.90;;;;;;4990450;28;20022;-86
2021/05/05 11:52:21;;;;;;;41.28;7.55;;;6.00;99.90;;;;;;5009969;28;20080;-83
2021/05/05 11:54:57;;;;;;;36.17;5.60;;;6.10;99.90;;;;;;4998467;28;20027;-81
2021/05/05 11:57:35;;;;;;;31.83;8.77;;;6.10;99.90;;;;;;4997463;28;20026;-84
2021/05/05 12:00:21;;;;;;;45.13;8.40;;;6.10;99.90;;;;;;4999613;28;20108;-85
2021/05/05 12:02:52;;;;;;;19.70;4.15;;;6.10;99.90;;;;;;5005545;28;20088;-84
2021/05/05 12:05:31;;;;;;;39.22;7.20;;;6.20;99.90;;;;;;4993037;28;20077;-84
2021/05/05 12:08:13;;;;;;;30.88;10.52;;;6.20;99.90;;;;;;4998756;28;20034;-85
2021/05/05 12:10:43;;;;;;;38.90;13.20;;;6.30;99.90;;;;;;5014065;28;20033;-86
2021/05/05 12:13:11;;;;;;;30.80;7.32;;;6.20;99.90;;;;;;4994797;28;20026;-84
2021/05/05 12:15:39;;;;;;;28.48;5.25;;;6.30;99.90;;;;;;4990589;28;20364;-85
2021/05/05 12:18:25;;;;;;;27.25;5.15;;;6.30;99.90;;;;;;4996689;28;20087;-84
2021/05/05 12:20:53;;;;;;;22.58;4.30;;;6.40;99.90;;;;;;4997164;28;20033;-84
2021/05/05 12:23:18;;;;;;;27.20;7.15;;;6.40;99.90;;;;;;4988655;28;20035;-84
2021/05/05 12:25:44;;;;;;;20.98;5.88;;;6.40;99.90;;;;;;5005225;28;20461;-83
2021/05/05 12:28:17;;;;;;;27.95;4.28;;;6.30;99.90;;;;;;4988786;28;20483;-82
2021/05/05 12:30:47;;;;;;;36.03;4.43;;;6.40;99.90;;;;;;4997464;28;20076;-85
2021/05/05 12:33:15;;;;;;;22.15;3.25;;;6.40;99.90;;;;;;5004573;28;20050;-83
2021/05/05 12:35:41;;;;;;;50.22;8.27;;;6.40;99.90;;;;;;4994691;28;20034;-83
2021/05/05 12:38:16;;;;;;;24.90;7.43;;;6.50;99.90;;;;;;5010670;28;20033;-84
2021/05/05 12:40:43;;;;;;;33.30;4.30;;;6.50;99.90;;;;;;5026521;28;20033;-84
2021/05/05 12:43:21;;;;;;;25.52;4.00;;;6.50;99.90;;;;;;5012351;28;20026;-85
2021/05/05 12:45:50;;;;;;;34.63;4.32;;;6.50;99.90;;;;;;5010015;28;20076;-84
2021/05/05 12:48:29;;;;;;;32.17;5.53;;;6.60;99.90;;;;;;5011908;28;20022;-84
2021/05/05 12:51:05;;;;;;;24.80;4.75;;;6.60;99.90;;;;;;5012066;28;20033;-84
2021/05/05 12:53:45;;;;;;;36.20;5.35;;;6.70;99.90;;;;;;5012155;28;20490;-83
2021/05/05 12:56:10;;;;;;;20.27;4.13;;;6.70;99.90;;;;;;5011751;28;20178;-83
2021/05/05 12:58:41;;;;;;;38.15;4.22;;;6.70;99.90;;;;;;5010253;28;20560;-83
2021/05/05 13:01:12;;;;;;;36.45;4.47;;;6.70;99.90;;;;;;5010476;28;20080;-81
2021/05/05 13:03:46;;;;;;;27.50;3.15;;;6.70;99.90;;;;;;5011350;28;20029;-83
2021/05/05 13:06:14;;;;;;;27.90;4.68;;;6.60;99.90;;;;;;5010477;28;20101;-82